sensor_id;sensor_type;location;lat;lon;timestamp;P1;durP1;ratioP1;P2;durP2;ratioP2
61188;SDS011;47054;39.716;2.904;2023-02-28T00:00:24;2.90;;;1.60;;
61188;SDS011;47054;39.716;2.904;2023-02-28T00:03:09;3.65;;;1.70;;
61188;SDS011;47054;39.716;2.904;2023-02-28T00:05:54;4.07;;;1.50;;
61188;SDS011;47054;39.716;2.904;2023-02-28T00:08:39;2.65;;;1.50;;
61188;SDS011;47054;39.716;2.904;2023-02-28T00:11:24;2.80;;;1.50;;
61188;SDS011;47054;39.716;2.904;2023-02-28T00:14:08;2.25;;;1.30;;
61188;SDS011;47054;39.716;2.904;2023-02-28T00:16:53;4.13;;;1.50;;
61188;SDS011;47054;39.716;2.904;2023-02-28T00:19:37;2.78;;;1.50;;
61188;SDS011;47054;39.716;2.904;2023-02-28T00:22:22;2.13;;;1.25;;
61188;SDS011;47054;39.716;2.904;2023-02-28T00:25:07;2.53;;;1.38;;
61188;SDS011;47054;39.716;2.904;2023-02-28T00:27:53;2.70;;;1.50;;
61188;SDS011;47054;39.716;2.904;2023-02-28T00:30:37;2.30;;;1.30;;
61188;SDS011;47054;39.716;2.904;2023-02-28T00:33:22;2.42;;;1.38;;
61188;SDS011;47054;39.716;2.904;2023-02-28T00:36:08;2.40;;;1.50;;
61188;SDS011;47054;39.716;2.904;2023-02-28T00:38:54;3.28;;;1.60;;
61188;SDS011;47054;39.716;2.904;2023-02-28T00:41:38;2.63;;;1.40;;
61188;SDS011;47054;39.716;2.904;2023-02-28T00:44:25;2.22;;;1.20;;
61188;SDS011;47054;39.716;2.904;2023-02-28T00:47:10;3.00;;;1.27;;
61188;SDS011;47054;39.716;2.904;2023-02-28T00:49:55;2.58;;;1.50;;
61188;SDS011;47054;39.716;2.904;2023-02-28T00:52:40;3.20;;;1.35;;
61188;SDS011;47054;39.716;2.904;2023-02-28T00:55:24;2.47;;;1.27;;
61188;SDS011;47054;39.716;2.904;2023-02-28T00:58:08;2.92;;;1.60;;
61188;SDS011;47054;39.716;2.904;2023-02-28T01:00:53;2.65;;;1.50;;
61188;SDS011;47054;39.716;2.904;2023-02-28T01:03:38;2.53;;;1.33;;
61188;SDS011;47054;39.716;2.904;2023-02-28T01:06:22;1.55;;;1.08;;
61188;SDS011;47054;39.716;2.904;2023-02-28T01:09:07;3.03;;;1.40;;
61188;SDS011;47054;39.716;2.904;2023-02-28T01:11:52;1.92;;;1.20;;
61188;SDS011;47054;39.716;2.904;2023-02-28T01:14:39;2.80;;;1.33;;
61188;SDS011;47054;39.716;2.904;2023-02-28T01:17:24;2.95;;;1.45;;
61188;SDS011;47054;39.716;2.904;2023-02-28T01:20:10;2.78;;;1.40;;
61188;SDS011;47054;39.716;2.904;2023-02-28T01:22:55;3.47;;;1.38;;
61188;SDS011;47054;39.716;2.904;2023-02-28T01:25:39;2.00;;;1.13;;
61188;SDS011;47054;39.716;2.904;2023-02-28T01:28:24;2.22;;;1.13;;
61188;SDS011;47054;39.716;2.904;2023-02-28T01:31:09;2.30;;;1.20;;
61188;SDS011;47054;39.716;2.904;2023-02-28T01:33:55;2.70;;;1.30;;
61188;SDS011;47054;39.716;2.904;2023-02-28T01:36:40;1.88;;;1.00;;
61188;SDS011;47054;39.716;2.904;2023-02-28T01:39:25;2.22;;;1.02;;
61188;SDS011;47054;39.716;2.904;2023-02-28T01:42:10;1.88;;;1.27;;
61188;SDS011;47054;39.716;2.904;2023-02-28T01:44:57;2.95;;;1.30;;
61188;SDS011;47054;39.716;2.904;2023-02-28T01:47:44;2.72;;;1.23;;
61188;SDS011;47054;39.716;2.904;2023-02-28T01:50:35;1.55;;;1.05;;
61188;SDS011;47054;39.716;2.904;2023-02-28T01:53:32;1.45;;;0.95;;
61188;SDS011;47054;39.716;2.904;2023-02-28T01:56:23;2.15;;;1.17;;
61188;SDS011;47054;39.716;2.904;2023-02-28T01:59:14;1.63;;;1.00;;
61188;SDS011;47054;39.716;2.904;2023-02-28T02:02:05;2.55;;;1.10;;
61188;SDS011;47054;39.716;2.904;2023-02-28T02:04:52;1.98;;;1.20;;
61188;SDS011;47054;39.716;2.904;2023-02-28T02:07:40;1.67;;;1.08;;
61188;SDS011;47054;39.716;2.904;2023-02-28T02:10:36;2.63;;;1.00;;
61188;SDS011;47054;39.716;2.904;2023-02-28T02:16:52;2.92;;;1.20;;
61188;SDS011;47054;39.716;2.904;2023-02-28T02:26:03;2.03;;;1.08;;
61188;SDS011;47054;39.716;2.904;2023-02-28T02:48:47;3.33;;;1.00;;
61188;SDS011;47054;39.716;2.904;2023-02-28T02:51:32;2.17;;;1.10;;
61188;SDS011;47054;39.716;2.904;2023-02-28T02:54:19;1.55;;;1.00;;
61188;SDS011;47054;39.716;2.904;2023-02-28T02:57:08;1.90;;;1.10;;
61188;SDS011;47054;39.716;2.904;2023-02-28T02:59:57;2.00;;;1.00;;
61188;SDS011;47054;39.716;2.904;2023-02-28T03:02:44;2.15;;;1.15;;
61188;SDS011;47054;39.716;2.904;2023-02-28T03:08:34;0.98;;;0.80;;
61188;SDS011;47054;39.716;2.904;2023-02-28T03:11:20;1.50;;;0.82;;
61188;SDS011;47054;39.716;2.904;2023-02-28T03:20:13;1.73;;;0.90;;
61188;SDS011;47054;39.716;2.904;2023-02-28T03:26:06;1.02;;;0.70;;
61188;SDS011;47054;39.716;2.904;2023-02-28T03:34:57;1.30;;;0.80;;
61188;SDS011;47054;39.716;2.904;2023-02-28T03:37:50;1.55;;;0.80;;
61188;SDS011;47054;39.716;2.904;2023-02-28T03:40:41;1.40;;;0.95;;
61188;SDS011;47054;39.716;2.904;2023-02-28T03:43:32;1.42;;;0.88;;
61188;SDS011;47054;39.716;2.904;2023-02-28T03:46:21;1.35;;;0.90;;
61188;SDS011;47054;39.716;2.904;2023-02-28T03:49:11;0.77;;;0.57;;
61188;SDS011;47054;39.716;2.904;2023-02-28T03:52:02;1.52;;;0.85;;
61188;SDS011;47054;39.716;2.904;2023-02-28T03:54:50;1.63;;;0.93;;
61188;SDS011;47054;39.716;2.904;2023-02-28T03:57:52;1.52;;;0.95;;
61188;SDS011;47054;39.716;2.904;2023-02-28T04:00:50;1.10;;;0.77;;
61188;SDS011;47054;39.716;2.904;2023-02-28T04:03:39;1.75;;;1.15;;
61188;SDS011;47054;39.716;2.904;2023-02-28T04:06:24;1.05;;;0.70;;
61188;SDS011;47054;39.716;2.904;2023-02-28T04:09:10;1.00;;;0.60;;
61188;SDS011;47054;39.716;2.904;2023-02-28T04:11:57;1.15;;;0.80;;
61188;SDS011;47054;39.716;2.904;2023-02-28T04:14:42;0.90;;;0.65;;
61188;SDS011;47054;39.716;2.904;2023-02-28T04:17:26;1.25;;;0.70;;
61188;SDS011;47054;39.716;2.904;2023-02-28T04:20:11;0.80;;;0.50;;
61188;SDS011;47054;39.716;2.904;2023-02-28T04:22:56;1.90;;;0.90;;
61188;SDS011;47054;39.716;2.904;2023-02-28T04:25:41;1.23;;;0.75;;
61188;SDS011;47054;39.716;2.904;2023-02-28T04:28:25;1.13;;;0.73;;
61188;SDS011;47054;39.716;2.904;2023-02-28T04:31:10;1.85;;;0.90;;
61188;SDS011;47054;39.716;2.904;2023-02-28T04:33:54;0.90;;;0.55;;
61188;SDS011;47054;39.716;2.904;2023-02-28T04:36:39;1.23;;;0.80;;
61188;SDS011;47054;39.716;2.904;2023-02-28T04:39:24;1.10;;;0.73;;
61188;SDS011;47054;39.716;2.904;2023-02-28T04:42:09;0.40;;;0.40;;
61188;SDS011;47054;39.716;2.904;2023-02-28T04:44:54;0.80;;;0.57;;
61188;SDS011;47054;39.716;2.904;2023-02-28T04:47:38;1.48;;;0.80;;
61188;SDS011;47054;39.716;2.904;2023-02-28T04:50:23;0.65;;;0.50;;
61188;SDS011;47054;39.716;2.904;2023-02-28T04:53:08;2.45;;;0.60;;
61188;SDS011;47054;39.716;2.904;2023-02-28T04:55:52;1.40;;;0.80;;
61188;SDS011;47054;39.716;2.904;2023-02-28T04:58:37;1.02;;;0.63;;
61188;SDS011;47054;39.716;2.904;2023-02-28T05:01:26;0.93;;;0.52;;
61188;SDS011;47054;39.716;2.904;2023-02-28T05:04:13;0.82;;;0.57;;
61188;SDS011;47054;39.716;2.904;2023-02-28T05:06:59;1.00;;;0.60;;
61188;SDS011;47054;39.716;2.904;2023-02-28T05:09:44;1.38;;;0.60;;
61188;SDS011;47054;39.716;2.904;2023-02-28T05:12:28;1.70;;;0.80;;
61188;SDS011;47054;39.716;2.904;2023-02-28T05:15:13;0.55;;;0.43;;
61188;SDS011;47054;39.716;2.904;2023-02-28T05:17:59;1.02;;;0.60;;
61188;SDS011;47054;39.716;2.904;2023-02-28T05:20:43;2.17;;;0.85;;
61188;SDS011;47054;39.716;2.904;2023-02-28T05:23:28;1.25;;;0.68;;
61188;SDS011;47054;39.716;2.904;2023-02-28T05:26:13;1.15;;;0.70;;
61188;SDS011;47054;39.716;2.904;2023-02-28T05:28:58;0.82;;;0.60;;
61188;SDS011;47054;39.716;2.904;2023-02-28T05:31:42;0.90;;;0.60;;
61188;SDS011;47054;39.716;2.904;2023-02-28T05:34:27;2.30;;;0.70;;
61188;SDS011;47054;39.716;2.904;2023-02-28T05:37:12;0.95;;;0.50;;
61188;SDS011;47054;39.716;2.904;2023-02-28T05:39:58;1.38;;;0.90;;
61188;SDS011;47054;39.716;2.904;2023-02-28T05:42:42;0.55;;;0.50;;
61188;SDS011;47054;39.716;2.904;2023-02-28T05:45:27;1.65;;;0.77;;
61188;SDS011;47054;39.716;2.904;2023-02-28T05:48:12;1.08;;;0.70;;
61188;SDS011;47054;39.716;2.904;2023-02-28T05:50:57;1.27;;;0.63;;
61188;SDS011;47054;39.716;2.904;2023-02-28T05:53:42;3.85;;;0.90;;
61188;SDS011;47054;39.716;2.904;2023-02-28T05:56:27;2.38;;;0.70;;
61188;SDS011;47054;39.716;2.904;2023-02-28T05:59:12;0.77;;;0.60;;
61188;SDS011;47054;39.716;2.904;2023-02-28T06:01:57;1.77;;;0.82;;
61188;SDS011;47054;39.716;2.904;2023-02-28T06:04:42;2.70;;;0.90;;
61188;SDS011;47054;39.716;2.904;2023-02-28T06:07:27;1.05;;;0.70;;
61188;SDS011;47054;39.716;2.904;2023-02-28T06:10:12;2.05;;;0.60;;
61188;SDS011;47054;39.716;2.904;2023-02-28T06:12:59;1.73;;;0.80;;
61188;SDS011;47054;39.716;2.904;2023-02-28T06:15:46;2.47;;;0.90;;
61188;SDS011;47054;39.716;2.904;2023-02-28T06:18:31;3.85;;;0.82;;
61188;SDS011;47054;39.716;2.904;2023-02-28T06:21:16;2.35;;;1.02;;
61188;SDS011;47054;39.716;2.904;2023-02-28T06:24:00;4.10;;;0.95;;
61188;SDS011;47054;39.716;2.904;2023-02-28T06:26:45;1.08;;;0.73;;
61188;SDS011;47054;39.716;2.904;2023-02-28T06:29:31;4.97;;;1.00;;
61188;SDS011;47054;39.716;2.904;2023-02-28T06:32:16;1.38;;;0.77;;
61188;SDS011;47054;39.716;2.904;2023-02-28T06:35:01;2.22;;;0.60;;
61188;SDS011;47054;39.716;2.904;2023-02-28T06:37:46;3.13;;;1.00;;
61188;SDS011;47054;39.716;2.904;2023-02-28T06:40:31;1.48;;;0.68;;
61188;SDS011;47054;39.716;2.904;2023-02-28T06:43:19;1.52;;;0.73;;
61188;SDS011;47054;39.716;2.904;2023-02-28T06:46:06;3.90;;;0.70;;
61188;SDS011;47054;39.716;2.904;2023-02-28T06:48:52;2.92;;;1.00;;
61188;SDS011;47054;39.716;2.904;2023-02-28T06:51:37;3.17;;;0.90;;
61188;SDS011;47054;39.716;2.904;2023-02-28T06:54:23;1.95;;;0.80;;
61188;SDS011;47054;39.716;2.904;2023-02-28T06:57:08;2.70;;;1.02;;
61188;SDS011;47054;39.716;2.904;2023-02-28T06:59:52;4.10;;;0.90;;
61188;SDS011;47054;39.716;2.904;2023-02-28T07:02:37;3.00;;;1.00;;
61188;SDS011;47054;39.716;2.904;2023-02-28T07:05:21;3.05;;;0.90;;
61188;SDS011;47054;39.716;2.904;2023-02-28T07:08:06;2.83;;;1.00;;
61188;SDS011;47054;39.716;2.904;2023-02-28T07:10:51;2.33;;;0.85;;
61188;SDS011;47054;39.716;2.904;2023-02-28T07:13:37;7.53;;;1.20;;
61188;SDS011;47054;39.716;2.904;2023-02-28T07:16:22;4.57;;;1.38;;
61188;SDS011;47054;39.716;2.904;2023-02-28T07:19:07;1.55;;;0.90;;
61188;SDS011;47054;39.716;2.904;2023-02-28T07:21:52;2.90;;;0.93;;
61188;SDS011;47054;39.716;2.904;2023-02-28T07:24:36;2.47;;;0.85;;
61188;SDS011;47054;39.716;2.904;2023-02-28T07:27:22;5.13;;;1.52;;
61188;SDS011;47054;39.716;2.904;2023-02-28T07:30:10;2.53;;;0.93;;
61188;SDS011;47054;39.716;2.904;2023-02-28T07:32:55;3.88;;;1.50;;
61188;SDS011;47054;39.716;2.904;2023-02-28T07:35:39;2.47;;;0.90;;
61188;SDS011;47054;39.716;2.904;2023-02-28T07:38:24;2.53;;;1.00;;
61188;SDS011;47054;39.716;2.904;2023-02-28T07:41:09;2.83;;;1.10;;
61188;SDS011;47054;39.716;2.904;2023-02-28T07:43:54;2.67;;;1.00;;
61188;SDS011;47054;39.716;2.904;2023-02-28T07:46:41;4.65;;;1.15;;
61188;SDS011;47054;39.716;2.904;2023-02-28T07:49:25;2.00;;;0.70;;
61188;SDS011;47054;39.716;2.904;2023-02-28T07:52:10;2.25;;;1.13;;
61188;SDS011;47054;39.716;2.904;2023-02-28T07:54:54;7.80;;;1.25;;
61188;SDS011;47054;39.716;2.904;2023-02-28T07:57:39;2.95;;;1.27;;
61188;SDS011;47054;39.716;2.904;2023-02-28T08:00:24;5.85;;;1.55;;
61188;SDS011;47054;39.716;2.904;2023-02-28T08:03:11;4.10;;;1.05;;
61188;SDS011;47054;39.716;2.904;2023-02-28T08:05:57;6.90;;;1.23;;
61188;SDS011;47054;39.716;2.904;2023-02-28T08:08:41;6.63;;;1.15;;
61188;SDS011;47054;39.716;2.904;2023-02-28T08:11:26;1.77;;;0.80;;
61188;SDS011;47054;39.716;2.904;2023-02-28T08:14:10;4.10;;;1.25;;
61188;SDS011;47054;39.716;2.904;2023-02-28T08:16:55;3.25;;;1.38;;
61188;SDS011;47054;39.716;2.904;2023-02-28T08:19:40;4.15;;;1.38;;
61188;SDS011;47054;39.716;2.904;2023-02-28T08:22:24;2.45;;;0.90;;
61188;SDS011;47054;39.716;2.904;2023-02-28T08:25:08;4.60;;;1.40;;
61188;SDS011;47054;39.716;2.904;2023-02-28T08:27:53;2.55;;;1.15;;
61188;SDS011;47054;39.716;2.904;2023-02-28T08:30:38;5.97;;;1.55;;
61188;SDS011;47054;39.716;2.904;2023-02-28T08:33:25;3.80;;;1.10;;
61188;SDS011;47054;39.716;2.904;2023-02-28T08:36:11;4.28;;;1.52;;
61188;SDS011;47054;39.716;2.904;2023-02-28T08:38:56;4.78;;;1.20;;
61188;SDS011;47054;39.716;2.904;2023-02-28T08:41:42;5.65;;;1.40;;
61188;SDS011;47054;39.716;2.904;2023-02-28T08:44:26;4.43;;;1.45;;
61188;SDS011;47054;39.716;2.904;2023-02-28T08:47:11;4.20;;;1.20;;
61188;SDS011;47054;39.716;2.904;2023-02-28T08:49:55;6.43;;;1.40;;
61188;SDS011;47054;39.716;2.904;2023-02-28T08:52:41;3.00;;;1.10;;
61188;SDS011;47054;39.716;2.904;2023-02-28T08:55:27;4.30;;;1.20;;
61188;SDS011;47054;39.716;2.904;2023-02-28T08:58:12;5.43;;;1.08;;
61188;SDS011;47054;39.716;2.904;2023-02-28T09:00:56;6.43;;;1.13;;
61188;SDS011;47054;39.716;2.904;2023-02-28T09:03:41;3.20;;;1.30;;
61188;SDS011;47054;39.716;2.904;2023-02-28T09:06:26;7.97;;;1.27;;
61188;SDS011;47054;39.716;2.904;2023-02-28T09:09:11;5.00;;;1.10;;
61188;SDS011;47054;39.716;2.904;2023-02-28T09:11:56;4.28;;;1.27;;
61188;SDS011;47054;39.716;2.904;2023-02-28T09:14:41;9.40;;;1.35;;
61188;SDS011;47054;39.716;2.904;2023-02-28T09:17:26;2.90;;;1.08;;
61188;SDS011;47054;39.716;2.904;2023-02-28T09:20:11;4.28;;;1.15;;
61188;SDS011;47054;39.716;2.904;2023-02-28T09:22:56;2.53;;;1.05;;
61188;SDS011;47054;39.716;2.904;2023-02-28T09:25:47;4.78;;;1.40;;
61188;SDS011;47054;39.716;2.904;2023-02-28T09:28:38;4.32;;;1.17;;
61188;SDS011;47054;39.716;2.904;2023-02-28T09:31:23;3.33;;;1.10;;
61188;SDS011;47054;39.716;2.904;2023-02-28T09:34:10;2.85;;;0.80;;
61188;SDS011;47054;39.716;2.904;2023-02-28T09:36:54;2.83;;;1.48;;
61188;SDS011;47054;39.716;2.904;2023-02-28T09:39:39;4.55;;;1.30;;
61188;SDS011;47054;39.716;2.904;2023-02-28T09:42:26;3.83;;;1.05;;
61188;SDS011;47054;39.716;2.904;2023-02-28T09:48:10;5.63;;;1.60;;
61188;SDS011;47054;39.716;2.904;2023-02-28T09:51:03;6.90;;;1.30;;
61188;SDS011;47054;39.716;2.904;2023-02-28T09:53:53;5.97;;;1.35;;
61188;SDS011;47054;39.716;2.904;2023-02-28T09:56:41;4.47;;;1.17;;
61188;SDS011;47054;39.716;2.904;2023-02-28T09:59:44;4.00;;;1.50;;
61188;SDS011;47054;39.716;2.904;2023-02-28T10:06:05;6.75;;;1.45;;
61188;SDS011;47054;39.716;2.904;2023-02-28T10:11:59;4.85;;;1.45;;
61188;SDS011;47054;39.716;2.904;2023-02-28T10:14:48;7.20;;;2.10;;
61188;SDS011;47054;39.716;2.904;2023-02-28T10:17:39;6.15;;;1.85;;
61188;SDS011;47054;39.716;2.904;2023-02-28T10:20:27;8.55;;;1.92;;
61188;SDS011;47054;39.716;2.904;2023-02-28T10:26:12;2.95;;;1.42;;
61188;SDS011;47054;39.716;2.904;2023-02-28T10:29:03;4.82;;;1.75;;
61188;SDS011;47054;39.716;2.904;2023-02-28T10:31:48;7.15;;;2.15;;
61188;SDS011;47054;39.716;2.904;2023-02-28T10:34:32;9.13;;;1.85;;
61188;SDS011;47054;39.716;2.904;2023-02-28T10:37:17;8.27;;;2.47;;
61188;SDS011;47054;39.716;2.904;2023-02-28T10:40:04;4.65;;;1.75;;
61188;SDS011;47054;39.716;2.904;2023-02-28T10:42:57;7.80;;;2.00;;
61188;SDS011;47054;39.716;2.904;2023-02-28T10:45:57;7.05;;;2.08;;
61188;SDS011;47054;39.716;2.904;2023-02-28T10:48:45;5.80;;;1.75;;
61188;SDS011;47054;39.716;2.904;2023-02-28T10:51:36;4.13;;;1.73;;
61188;SDS011;47054;39.716;2.904;2023-02-28T10:54:33;6.90;;;2.00;;
61188;SDS011;47054;39.716;2.904;2023-02-28T10:57:20;4.70;;;2.00;;
61188;SDS011;47054;39.716;2.904;2023-02-28T11:00:30;3.53;;;1.73;;
61188;SDS011;47054;39.716;2.904;2023-02-28T11:06:25;6.07;;;2.00;;
61188;SDS011;47054;39.716;2.904;2023-02-28T11:12:37;8.23;;;1.73;;
61188;SDS011;47054;39.716;2.904;2023-02-28T11:15:29;6.43;;;2.00;;
61188;SDS011;47054;39.716;2.904;2023-02-28T11:18:24;4.15;;;1.60;;
61188;SDS011;47054;39.716;2.904;2023-02-28T11:21:23;3.88;;;1.60;;
61188;SDS011;47054;39.716;2.904;2023-02-28T11:24:34;5.45;;;1.90;;
61188;SDS011;47054;39.716;2.904;2023-02-28T11:33:43;6.68;;;1.92;;
61188;SDS011;47054;39.716;2.904;2023-02-28T11:36:30;6.60;;;2.03;;
61188;SDS011;47054;39.716;2.904;2023-02-28T11:39:16;8.00;;;2.00;;
61188;SDS011;47054;39.716;2.904;2023-02-28T11:42:18;5.53;;;1.85;;
61188;SDS011;47054;39.716;2.904;2023-02-28T11:45:52;4.72;;;1.67;;
61188;SDS011;47054;39.716;2.904;2023-02-28T11:48:27;7.15;;;2.13;;
61188;SDS011;47054;39.716;2.904;2023-02-28T12:15:55;9.38;;;2.22;;
61188;SDS011;47054;39.716;2.904;2023-02-28T12:22:05;8.40;;;1.95;;
61188;SDS011;47054;39.716;2.904;2023-02-28T12:27:50;7.10;;;2.00;;
61188;SDS011;47054;39.716;2.904;2023-02-28T12:30:39;6.05;;;1.75;;
61188;SDS011;47054;39.716;2.904;2023-02-28T12:33:33;5.75;;;1.50;;
61188;SDS011;47054;39.716;2.904;2023-02-28T12:36:21;6.80;;;1.85;;
61188;SDS011;47054;39.716;2.904;2023-02-28T12:48:02;5.40;;;2.08;;
61188;SDS011;47054;39.716;2.904;2023-02-28T12:50:50;8.90;;;2.10;;
61188;SDS011;47054;39.716;2.904;2023-02-28T12:56:53;9.07;;;1.90;;
61188;SDS011;47054;39.716;2.904;2023-02-28T13:14:26;6.82;;;2.10;;
61188;SDS011;47054;39.716;2.904;2023-02-28T13:17:20;10.32;;;2.38;;
61188;SDS011;47054;39.716;2.904;2023-02-28T13:20:19;8.30;;;2.22;;
61188;SDS011;47054;39.716;2.904;2023-02-28T13:23:35;6.85;;;2.30;;
61188;SDS011;47054;39.716;2.904;2023-02-28T13:29:35;5.32;;;2.28;;
61188;SDS011;47054;39.716;2.904;2023-02-28T13:32:29;14.00;;;2.95;;
61188;SDS011;47054;39.716;2.904;2023-02-28T13:35:34;9.23;;;2.95;;
61188;SDS011;47054;39.716;2.904;2023-02-28T13:38:22;8.05;;;2.60;;
61188;SDS011;47054;39.716;2.904;2023-02-28T13:44:21;8.52;;;2.92;;
61188;SDS011;47054;39.716;2.904;2023-02-28T13:47:19;11.20;;;3.38;;
61188;SDS011;47054;39.716;2.904;2023-02-28T13:56:06;12.00;;;3.80;;
61188;SDS011;47054;39.716;2.904;2023-02-28T13:59:12;11.55;;;3.03;;
61188;SDS011;47054;39.716;2.904;2023-02-28T14:05:06;9.95;;;2.80;;
61188;SDS011;47054;39.716;2.904;2023-02-28T14:08:02;9.85;;;2.90;;
61188;SDS011;47054;39.716;2.904;2023-02-28T14:11:02;8.38;;;2.50;;
61188;SDS011;47054;39.716;2.904;2023-02-28T14:13:50;8.88;;;2.80;;
61188;SDS011;47054;39.716;2.904;2023-02-28T14:16:44;10.75;;;3.30;;
61188;SDS011;47054;39.716;2.904;2023-02-28T14:19:31;9.35;;;2.80;;
61188;SDS011;47054;39.716;2.904;2023-02-28T14:25:30;10.75;;;2.97;;
61188;SDS011;47054;39.716;2.904;2023-02-28T14:31:24;10.45;;;2.90;;
61188;SDS011;47054;39.716;2.904;2023-02-28T14:37:16;8.13;;;2.97;;
61188;SDS011;47054;39.716;2.904;2023-02-28T14:40:14;11.23;;;2.70;;
61188;SDS011;47054;39.716;2.904;2023-02-28T14:43:03;9.48;;;2.80;;
61188;SDS011;47054;39.716;2.904;2023-02-28T14:46:00;9.15;;;3.10;;
61188;SDS011;47054;39.716;2.904;2023-02-28T14:48:47;11.40;;;2.90;;
61188;SDS011;47054;39.716;2.904;2023-02-28T14:51:33;12.02;;;3.22;;
61188;SDS011;47054;39.716;2.904;2023-02-28T14:54:20;9.27;;;2.80;;
61188;SDS011;47054;39.716;2.904;2023-02-28T14:57:21;9.13;;;2.88;;
61188;SDS011;47054;39.716;2.904;2023-02-28T15:00:15;7.25;;;2.50;;
61188;SDS011;47054;39.716;2.904;2023-02-28T15:06:13;7.63;;;2.80;;
61188;SDS011;47054;39.716;2.904;2023-02-28T15:09:13;6.88;;;2.50;;
61188;SDS011;47054;39.716;2.904;2023-02-28T15:12:00;8.68;;;2.83;;
61188;SDS011;47054;39.716;2.904;2023-02-28T15:14:45;9.55;;;2.50;;
61188;SDS011;47054;39.716;2.904;2023-02-28T15:17:31;14.35;;;2.78;;
61188;SDS011;47054;39.716;2.904;2023-02-28T15:20:15;8.95;;;2.35;;
61188;SDS011;47054;39.716;2.904;2023-02-28T15:23:02;10.35;;;2.75;;
61188;SDS011;47054;39.716;2.904;2023-02-28T15:25:47;8.43;;;2.83;;
61188;SDS011;47054;39.716;2.904;2023-02-28T15:28:32;7.50;;;2.78;;
61188;SDS011;47054;39.716;2.904;2023-02-28T15:31:21;7.78;;;2.60;;
61188;SDS011;47054;39.716;2.904;2023-02-28T15:34:44;14.75;;;3.15;;
61188;SDS011;47054;39.716;2.904;2023-02-28T15:40:25;8.98;;;2.53;;
61188;SDS011;47054;39.716;2.904;2023-02-28T15:43:16;4.78;;;2.53;;
61188;SDS011;47054;39.716;2.904;2023-02-28T15:48:54;7.57;;;2.78;;
61188;SDS011;47054;39.716;2.904;2023-02-28T15:51:40;8.38;;;2.88;;
61188;SDS011;47054;39.716;2.904;2023-02-28T15:54:29;7.93;;;2.60;;
61188;SDS011;47054;39.716;2.904;2023-02-28T15:57:18;12.13;;;2.42;;
61188;SDS011;47054;39.716;2.904;2023-02-28T16:00:08;7.80;;;3.00;;
61188;SDS011;47054;39.716;2.904;2023-02-28T16:02:57;9.48;;;2.72;;
61188;SDS011;47054;39.716;2.904;2023-02-28T16:05:41;7.32;;;2.67;;
61188;SDS011;47054;39.716;2.904;2023-02-28T16:08:26;12.70;;;3.00;;
61188;SDS011;47054;39.716;2.904;2023-02-28T16:11:10;11.27;;;3.35;;
61188;SDS011;47054;39.716;2.904;2023-02-28T16:13:54;8.77;;;2.78;;
61188;SDS011;47054;39.716;2.904;2023-02-28T16:16:42;8.25;;;3.03;;
61188;SDS011;47054;39.716;2.904;2023-02-28T16:19:28;7.38;;;2.53;;
61188;SDS011;47054;39.716;2.904;2023-02-28T16:22:12;8.65;;;3.08;;
61188;SDS011;47054;39.716;2.904;2023-02-28T16:24:57;9.57;;;2.83;;
61188;SDS011;47054;39.716;2.904;2023-02-28T16:27:42;7.93;;;2.50;;
61188;SDS011;47054;39.716;2.904;2023-02-28T16:30:29;7.97;;;2.75;;
61188;SDS011;47054;39.716;2.904;2023-02-28T16:33:17;8.57;;;3.30;;
61188;SDS011;47054;39.716;2.904;2023-02-28T16:36:01;8.00;;;2.97;;
61188;SDS011;47054;39.716;2.904;2023-02-28T16:38:46;7.25;;;2.50;;
61188;SDS011;47054;39.716;2.904;2023-02-28T16:41:31;6.55;;;2.75;;
61188;SDS011;47054;39.716;2.904;2023-02-28T16:44:24;8.13;;;2.90;;
61188;SDS011;47054;39.716;2.904;2023-02-28T16:47:12;7.18;;;2.58;;
61188;SDS011;47054;39.716;2.904;2023-02-28T16:49:56;10.50;;;3.00;;
61188;SDS011;47054;39.716;2.904;2023-02-28T16:52:41;9.02;;;2.80;;
61188;SDS011;47054;39.716;2.904;2023-02-28T16:55:26;5.68;;;2.50;;
61188;SDS011;47054;39.716;2.904;2023-02-28T16:58:13;7.35;;;2.40;;
61188;SDS011;47054;39.716;2.904;2023-02-28T17:00:59;7.03;;;2.85;;
61188;SDS011;47054;39.716;2.904;2023-02-28T17:03:43;5.30;;;2.40;;
61188;SDS011;47054;39.716;2.904;2023-02-28T17:06:28;7.43;;;2.83;;
61188;SDS011;47054;39.716;2.904;2023-02-28T17:09:16;8.70;;;3.13;;
61188;SDS011;47054;39.716;2.904;2023-02-28T17:12:02;12.93;;;2.92;;
61188;SDS011;47054;39.716;2.904;2023-02-28T17:14:46;6.97;;;2.13;;
61188;SDS011;47054;39.716;2.904;2023-02-28T17:17:31;5.68;;;2.45;;
61188;SDS011;47054;39.716;2.904;2023-02-28T17:20:18;7.78;;;2.50;;
61188;SDS011;47054;39.716;2.904;2023-02-28T17:23:08;9.45;;;2.80;;
61188;SDS011;47054;39.716;2.904;2023-02-28T17:25:52;6.20;;;2.50;;
61188;SDS011;47054;39.716;2.904;2023-02-28T17:28:41;5.40;;;2.28;;
61188;SDS011;47054;39.716;2.904;2023-02-28T17:31:26;8.15;;;2.80;;
61188;SDS011;47054;39.716;2.904;2023-02-28T17:34:12;7.35;;;2.58;;
61188;SDS011;47054;39.716;2.904;2023-02-28T17:37:02;6.20;;;2.35;;
61188;SDS011;47054;39.716;2.904;2023-02-28T17:39:47;6.95;;;2.78;;
61188;SDS011;47054;39.716;2.904;2023-02-28T17:42:31;5.20;;;2.03;;
61188;SDS011;47054;39.716;2.904;2023-02-28T17:45:15;6.28;;;2.55;;
61188;SDS011;47054;39.716;2.904;2023-02-28T17:48:00;6.40;;;2.55;;
61188;SDS011;47054;39.716;2.904;2023-02-28T17:50:45;8.85;;;2.72;;
61188;SDS011;47054;39.716;2.904;2023-02-28T17:53:30;7.97;;;2.65;;
61188;SDS011;47054;39.716;2.904;2023-02-28T17:56:15;7.32;;;2.38;;
61188;SDS011;47054;39.716;2.904;2023-02-28T17:59:04;7.72;;;2.60;;
61188;SDS011;47054;39.716;2.904;2023-02-28T18:01:48;7.00;;;2.35;;
61188;SDS011;47054;39.716;2.904;2023-02-28T18:04:33;6.43;;;2.47;;
61188;SDS011;47054;39.716;2.904;2023-02-28T18:07:17;6.85;;;2.80;;
61188;SDS011;47054;39.716;2.904;2023-02-28T18:10:05;6.18;;;2.40;;
61188;SDS011;47054;39.716;2.904;2023-02-28T18:12:51;7.10;;;2.30;;
61188;SDS011;47054;39.716;2.904;2023-02-28T18:15:36;5.68;;;2.40;;
61188;SDS011;47054;39.716;2.904;2023-02-28T18:18:20;8.30;;;2.63;;
61188;SDS011;47054;39.716;2.904;2023-02-28T18:21:05;5.93;;;2.55;;
61188;SDS011;47054;39.716;2.904;2023-02-28T18:23:51;8.73;;;2.80;;
61188;SDS011;47054;39.716;2.904;2023-02-28T18:26:36;6.20;;;2.63;;
61188;SDS011;47054;39.716;2.904;2023-02-28T18:29:23;4.68;;;2.15;;
61188;SDS011;47054;39.716;2.904;2023-02-28T18:32:10;6.63;;;2.30;;
61188;SDS011;47054;39.716;2.904;2023-02-28T18:34:54;5.78;;;2.30;;
61188;SDS011;47054;39.716;2.904;2023-02-28T18:37:39;6.60;;;2.47;;
61188;SDS011;47054;39.716;2.904;2023-02-28T18:40:24;5.50;;;2.40;;
61188;SDS011;47054;39.716;2.904;2023-02-28T18:43:08;6.95;;;2.50;;
61188;SDS011;47054;39.716;2.904;2023-02-28T18:45:53;6.53;;;2.45;;
61188;SDS011;47054;39.716;2.904;2023-02-28T18:48:38;5.95;;;2.33;;
61188;SDS011;47054;39.716;2.904;2023-02-28T18:51:24;9.38;;;2.90;;
61188;SDS011;47054;39.716;2.904;2023-02-28T18:54:11;5.72;;;2.38;;
61188;SDS011;47054;39.716;2.904;2023-02-28T18:56:56;6.88;;;2.83;;
61188;SDS011;47054;39.716;2.904;2023-02-28T18:59:41;5.63;;;2.42;;
61188;SDS011;47054;39.716;2.904;2023-02-28T19:02:25;7.03;;;2.55;;
61188;SDS011;47054;39.716;2.904;2023-02-28T19:05:09;8.38;;;2.78;;
61188;SDS011;47054;39.716;2.904;2023-02-28T19:07:55;8.40;;;2.90;;
61188;SDS011;47054;39.716;2.904;2023-02-28T19:10:39;5.10;;;2.53;;
61188;SDS011;47054;39.716;2.904;2023-02-28T19:13:24;6.55;;;2.50;;
61188;SDS011;47054;39.716;2.904;2023-02-28T19:16:08;7.70;;;2.60;;
61188;SDS011;47054;39.716;2.904;2023-02-28T19:18:55;5.65;;;2.60;;
61188;SDS011;47054;39.716;2.904;2023-02-28T19:21:41;7.05;;;2.83;;
61188;SDS011;47054;39.716;2.904;2023-02-28T19:24:25;5.70;;;2.53;;
61188;SDS011;47054;39.716;2.904;2023-02-28T19:27:10;6.40;;;2.70;;
61188;SDS011;47054;39.716;2.904;2023-02-28T19:29:54;9.57;;;2.38;;
61188;SDS011;47054;39.716;2.904;2023-02-28T19:32:42;6.93;;;2.35;;